Terminal Aerodrome Forecast
Issued by NWS Bismarck, ND

Home | Current Version | Previous Version | Graphics & Text | Print | Product List | Glossary On
Versions: 1 2 3 4 5 6 7 8 9 10 11 12 13 14 15
000
FTUS43 KBIS 271700
TAFISN
TAF
KISN 271732Z 2718/2818 03018G26KT P6SM SCT250
     FM272000 02017KT P6SM BKN250
     FM280300 01017KT P6SM BKN200
     FM280600 02016KT P6SM OVC090
     FM281300 03016KT P6SM -SHRA OVC035=

USA.gov is the U.S. government's official web portal to all federal, state and local government web resources and services.